Time;durP1;ratioP1;P1;durP2;ratioP2;P2;SDS_P1;SDS_P2;PMS_P1;PMS_P2;Temp;Humidity;BMP_temperature;BMP_pressure;BME280_temperature;BME280_humidity;BME280_pressure;Samples;Min_cycle;Max_cycle;Signal;HPM_P1;HPM_P2
2021/09/06 00:00:01;;;;;;;7.20;4.63;;;;;;;;;;5099759;28;20201;-64
2021/09/06 00:02:29;;;;;;;5.60;3.80;;;;;;;;;;5099140;28;20297;-64
2021/09/06 00:04:59;;;;;;;6.87;3.67;;;;;;;;;;5098865;28;20236;-64
2021/09/06 00:07:27;;;;;;;5.30;3.40;;;;;;;;;;5099612;28;20213;-64
2021/09/06 00:10:03;;;;;;;6.53;4.10;;;;;;;;;;5099442;28;20230;-64
2021/09/06 00:12:31;;;;;;;6.07;4.03;;;;;;;;;;5099152;28;20208;-64
2021/09/06 00:14:59;;;;;;;4.50;4.10;;;;;;;;;;5098947;28;20314;-64
2021/09/06 00:17:28;;;;;;;5.60;4.23;;;;;;;;;;5099201;28;20207;-64
2021/09/06 00:19:56;;;;;;;7.10;4.57;;;;;;;;;;5098858;28;20214;-64
2021/09/06 00:22:25;;;;;;;4.50;4.10;;;;;;;;;;5099085;28;20207;-64
2021/09/06 00:24:53;;;;;;;7.73;4.30;;;;;;;;;;5104350;28;20227;-64
2021/09/06 00:27:21;;;;;;;5.87;4.27;;;;;;;;;;5098888;28;20217;-65
2021/09/06 00:29:49;;;;;;;4.83;4.33;;;;;;;;;;5098746;28;20575;-64
2021/09/06 00:32:17;;;;;;;7.67;4.00;;;;;;;;;;5099064;28;20223;-64
2021/09/06 00:34:45;;;;;;;7.17;4.77;;;;;;;;;;5098690;28;20232;-64
2021/09/06 00:37:14;;;;;;;6.10;3.97;;;;;;;;;;5098986;28;20682;-64
2021/09/06 00:39:43;;;;;;;7.20;4.13;;;;;;;;;;5098776;28;20200;-64
2021/09/06 00:42:11;;;;;;;4.53;4.13;;;;;;;;;;5099421;28;20203;-64
2021/09/06 00:44:39;;;;;;;5.17;4.33;;;;;;;;;;5105016;28;20218;-64
2021/09/06 00:47:07;;;;;;;6.27;4.10;;;;;;;;;;5119041;28;20207;-64
2021/09/06 00:49:35;;;;;;;5.80;4.30;;;;;;;;;;5113615;28;20809;-64
2021/09/06 00:52:03;;;;;;;6.77;4.33;;;;;;;;;;5097938;28;20209;-64
2021/09/06 00:54:31;;;;;;;8.50;4.50;;;;;;;;;;5098215;28;20227;-64
2021/09/06 00:57:01;;;;;;;6.23;4.10;;;;;;;;;;5098842;28;20208;-64
2021/09/06 00:59:29;;;;;;;5.13;4.33;;;;;;;;;;5099048;28;20666;-64
2021/09/06 01:01:57;;;;;;;5.87;4.33;;;;;;;;;;5104174;28;20208;-64
2021/09/06 01:04:25;;;;;;;5.10;4.50;;;;;;;;;;5097949;28;20257;-64
2021/09/06 01:06:53;;;;;;;7.23;4.20;;;;;;;;;;5098315;28;20213;-64
2021/09/06 01:09:21;;;;;;;6.30;4.77;;;;;;;;;;5098142;28;20216;-64
2021/09/06 01:11:49;;;;;;;5.63;4.30;;;;;;;;;;5102775;28;20219;-64
2021/09/06 01:14:18;;;;;;;5.40;4.40;;;;;;;;;;5100457;28;20288;-64
2021/09/06 01:16:46;;;;;;;6.10;4.47;;;;;;;;;;5099549;28;20210;-64
2021/09/06 01:19:14;;;;;;;9.60;4.10;;;;;;;;;;5100531;28;20253;-64
2021/09/06 01:21:42;;;;;;;6.57;4.63;;;;;;;;;;5099671;28;20282;-64
2021/09/06 01:24:10;;;;;;;5.87;4.80;;;;;;;;;;5102540;28;20236;-64
2021/09/06 01:26:40;;;;;;;5.53;4.37;;;;;;;;;;5104437;28;20731;-64
2021/09/06 01:29:08;;;;;;;6.10;4.73;;;;;;;;;;5099585;28;20245;-64
2021/09/06 01:31:36;;;;;;;8.73;5.03;;;;;;;;;;5099144;28;20236;-64
2021/09/06 01:34:04;;;;;;;5.00;4.50;;;;;;;;;;5097650;28;20574;-64
2021/09/06 01:36:32;;;;;;;6.30;4.77;;;;;;;;;;5097633;28;20205;-64
2021/09/06 01:39:00;;;;;;;6.97;5.23;;;;;;;;;;5097601;28;20211;-64
2021/09/06 01:41:28;;;;;;;8.97;4.33;;;;;;;;;;5097685;28;20631;-64
2021/09/06 01:43:58;;;;;;;7.37;5.60;;;;;;;;;;5097815;28;20784;-64
2021/09/06 01:46:27;;;;;;;6.77;5.53;;;;;;;;;;5117105;28;20576;-64
2021/09/06 01:48:57;;;;;;;8.80;5.03;;;;;;;;;;5118043;28;20648;-64
2021/09/06 01:51:25;;;;;;;7.20;4.87;;;;;;;;;;5097194;28;20223;-64
2021/09/06 01:53:53;;;;;;;7.23;5.37;;;;;;;;;;5097795;28;20227;-64
2021/09/06 01:56:21;;;;;;;10.33;4.93;;;;;;;;;;5097523;28;20234;-64
2021/09/06 01:58:50;;;;;;;6.53;5.33;;;;;;;;;;5097739;28;20271;-64
2021/09/06 02:01:19;;;;;;;7.27;5.10;;;;;;;;;;5097256;28;20204;-64
2021/09/06 02:03:47;;;;;;;5.30;4.77;;;;;;;;;;5107603;28;20219;-64
2021/09/06 02:06:15;;;;;;;8.40;5.27;;;;;;;;;;5121552;28;20202;-64
2021/09/06 02:08:43;;;;;;;6.87;5.50;;;;;;;;;;5121700;28;20286;-64
2021/09/06 02:11:12;;;;;;;6.97;4.80;;;;;;;;;;5121915;28;20223;-64
2021/09/06 02:13:40;;;;;;;5.93;5.03;;;;;;;;;;5121812;28;20292;-64
2021/09/06 02:16:08;;;;;;;5.97;4.90;;;;;;;;;;5122281;28;20267;-64
2021/09/06 02:18:37;;;;;;;6.97;5.03;;;;;;;;;;5107826;28;20240;-64
2021/09/06 02:21:05;;;;;;;6.03;5.00;;;;;;;;;;5121615;28;20203;-64
2021/09/06 02:23:33;;;;;;;6.80;4.77;;;;;;;;;;5121791;28;20202;-64
2021/09/06 02:26:02;;;;;;;5.03;4.50;;;;;;;;;;5121125;28;20198;-64
2021/09/06 02:28:30;;;;;;;6.60;4.60;;;;;;;;;;5121423;28;20290;-64
2021/09/06 02:30:58;;;;;;;5.57;4.27;;;;;;;;;;5121348;28;20233;-64
2021/09/06 02:33:26;;;;;;;5.03;4.50;;;;;;;;;;5121518;28;20290;-64
2021/09/06 02:35:55;;;;;;;5.30;4.57;;;;;;;;;;5121520;28;20210;-64
2021/09/06 02:38:23;;;;;;;4.80;4.23;;;;;;;;;;5121710;28;20294;-64
2021/09/06 02:40:51;;;;;;;5.50;4.40;;;;;;;;;;5121675;27;20200;-64
2021/09/06 02:43:19;;;;;;;4.87;4.20;;;;;;;;;;5120426;28;20215;-64
2021/09/06 02:45:47;;;;;;;5.00;4.07;;;;;;;;;;5115057;28;20223;-64
2021/09/06 02:48:15;;;;;;;4.20;3.70;;;;;;;;;;5121580;28;20228;-64
2021/09/06 02:50:43;;;;;;;7.97;4.07;;;;;;;;;;5105767;28;20715;-64
2021/09/06 02:53:13;;;;;;;6.60;4.27;;;;;;;;;;5100604;28;20661;-64
2021/09/06 02:55:40;;;;;;;6.40;4.10;;;;;;;;;;5100676;28;20232;-64
2021/09/06 02:58:08;;;;;;;4.23;3.80;;;;;;;;;;5100898;28;20215;-64
2021/09/06 03:00:36;;;;;;;6.03;4.47;;;;;;;;;;5100922;28;20284;-63
2021/09/06 03:03:04;;;;;;;3.70;3.33;;;;;;;;;;5100494;28;20568;-63
2021/09/06 03:05:33;;;;;;;3.93;3.53;;;;;;;;;;5100489;28;20233;-64
2021/09/06 03:08:01;;;;;;;5.00;3.40;;;;;;;;;;5100518;28;20214;-64
2021/09/06 03:10:31;;;;;;;4.77;3.43;;;;;;;;;;5100441;28;20208;-64
2021/09/06 03:12:59;;;;;;;3.77;3.37;;;;;;;;;;5100574;28;20218;-63
2021/09/06 03:15:27;;;;;;;4.47;3.70;;;;;;;;;;5099550;28;20228;-64
2021/09/06 03:17:56;;;;;;;5.40;4.07;;;;;;;;;;5100184;28;20207;-63
2021/09/06 03:20:24;;;;;;;4.27;3.70;;;;;;;;;;5099959;28;20210;-64
2021/09/06 03:22:52;;;;;;;4.30;3.90;;;;;;;;;;5100102;28;20221;-63
2021/09/06 03:25:20;;;;;;;6.80;4.30;;;;;;;;;;5106323;28;20223;-64
2021/09/06 03:27:50;;;;;;;4.03;3.63;;;;;;;;;;5100047;28;20638;-63
2021/09/06 03:30:17;;;;;;;4.40;4.00;;;;;;;;;;5099740;28;20615;-65
2021/09/06 03:32:45;;;;;;;4.40;4.00;;;;;;;;;;5100032;28;20230;-63
2021/09/06 03:35:14;;;;;;;4.83;3.60;;;;;;;;;;5099418;28;20234;-64
2021/09/06 03:37:42;;;;;;;3.83;3.43;;;;;;;;;;5099638;28;20231;-63
2021/09/06 03:40:11;;;;;;;6.40;4.27;;;;;;;;;;5099856;28;20217;-64
2021/09/06 03:42:39;;;;;;;4.37;3.80;;;;;;;;;;5099969;28;20207;-63
2021/09/06 03:45:09;;;;;;;4.57;4.07;;;;;;;;;;5108713;28;20226;-64
2021/09/06 03:47:37;;;;;;;4.83;3.57;;;;;;;;;;5119964;28;20573;-64
2021/09/06 03:50:06;;;;;;;5.50;3.87;;;;;;;;;;5110906;28;20206;-63
2021/09/06 03:52:34;;;;;;;5.60;4.07;;;;;;;;;;5099482;28;20225;-63
2021/09/06 03:55:02;;;;;;;4.60;3.80;;;;;;;;;;5099816;28;20232;-64
2021/09/06 03:57:30;;;;;;;4.50;3.90;;;;;;;;;;5099723;28;20271;-63
2021/09/06 03:59:58;;;;;;;9.57;4.27;;;;;;;;;;5099475;28;20205;-63
2021/09/06 04:02:27;;;;;;;4.53;4.13;;;;;;;;;;5099339;28;20285;-64
2021/09/06 04:04:56;;;;;;;5.17;4.00;;;;;;;;;;5099262;28;20229;-64
2021/09/06 04:07:24;;;;;;;5.10;4.60;;;;;;;;;;5099327;28;20205;-62
2021/09/06 04:09:53;;;;;;;8.03;4.70;;;;;;;;;;5099389;28;20241;-63
2021/09/06 04:12:21;;;;;;;6.17;4.93;;;;;;;;;;5098909;28;20584;-63
2021/09/06 04:14:50;;;;;;;4.77;4.27;;;;;;;;;;5099349;28;20231;-63
2021/09/06 04:17:18;;;;;;;5.10;4.37;;;;;;;;;;5099079;28;20205;-63
2021/09/06 04:19:48;;;;;;;7.87;4.77;;;;;;;;;;5099079;28;20220;-63
2021/09/06 04:22:16;;;;;;;5.80;4.33;;;;;;;;;;5099253;28;20209;-63
2021/09/06 04:24:46;;;;;;;8.13;4.43;;;;;;;;;;5106021;28;20231;-64
2021/09/06 04:27:15;;;;;;;4.63;4.13;;;;;;;;;;5103291;28;20216;-64
2021/09/06 04:29:43;;;;;;;5.40;4.73;;;;;;;;;;5106516;28;20599;-61
2021/09/06 04:32:11;;;;;;;5.20;4.23;;;;;;;;;;5106861;28;20707;-61
2021/09/06 04:34:39;;;;;;;6.07;4.40;;;;;;;;;;5102063;28;20592;-61
2021/09/06 04:37:08;;;;;;;5.47;4.10;;;;;;;;;;5100593;28;20203;-61
2021/09/06 04:39:36;;;;;;;5.03;4.63;;;;;;;;;;5105718;28;20288;-60
2021/09/06 04:42:04;;;;;;;5.20;4.57;;;;;;;;;;5110306;28;20287;-63
2021/09/06 04:44:32;;;;;;;6.47;4.00;;;;;;;;;;5104740;28;20226;-62
2021/09/06 04:47:00;;;;;;;6.63;4.63;;;;;;;;;;5100116;28;20677;-62
2021/09/06 04:49:28;;;;;;;4.90;4.40;;;;;;;;;;5103635;28;20570;-61
2021/09/06 04:51:56;;;;;;;5.37;4.80;;;;;;;;;;5114914;28;20224;-61
2021/09/06 04:54:26;;;;;;;7.20;5.20;;;;;;;;;;5102422;28;20233;-61
2021/09/06 04:56:54;;;;;;;6.03;4.20;;;;;;;;;;5105112;28;20205;-62
2021/09/06 04:59:22;;;;;;;7.03;5.07;;;;;;;;;;5107161;28;20293;-63
2021/09/06 05:01:50;;;;;;;9.50;4.80;;;;;;;;;;5101257;28;20575;-63
2021/09/06 05:04:18;;;;;;;6.17;4.67;;;;;;;;;;5103031;28;20763;-61
2021/09/06 05:06:46;;;;;;;6.13;4.57;;;;;;;;;;5101257;28;20197;-62
2021/09/06 05:09:14;;;;;;;11.00;4.60;;;;;;;;;;5104456;28;20570;-63
2021/09/06 05:11:44;;;;;;;4.90;4.43;;;;;;;;;;5105182;28;20296;-63
2021/09/06 05:14:11;;;;;;;5.20;4.17;;;;;;;;;;5106808;28;20229;-63
2021/09/06 05:16:39;;;;;;;8.13;4.80;;;;;;;;;;5112260;28;20197;-63
2021/09/06 05:19:07;;;;;;;6.40;4.50;;;;;;;;;;5104313;28;20201;-63
2021/09/06 05:21:35;;;;;;;5.03;3.63;;;;;;;;;;5109088;28;20211;-63
2021/09/06 05:24:04;;;;;;;5.40;4.27;;;;;;;;;;5104617;28;20240;-63
2021/09/06 05:26:32;;;;;;;4.63;4.10;;;;;;;;;;5103209;28;20207;-63
2021/09/06 05:29:01;;;;;;;4.70;4.30;;;;;;;;;;5101974;28;20237;-62
2021/09/06 05:31:29;;;;;;;6.33;4.40;;;;;;;;;;5102094;28;20622;-62
2021/09/06 05:33:57;;;;;;;7.40;4.43;;;;;;;;;;5096931;28;20255;-62
2021/09/06 05:36:25;;;;;;;4.97;4.47;;;;;;;;;;5096575;28;20209;-62
2021/09/06 05:38:53;;;;;;;6.23;4.40;;;;;;;;;;5106427;28;20207;-62
2021/09/06 05:41:21;;;;;;;5.10;4.20;;;;;;;;;;5115607;28;20205;-63
2021/09/06 05:43:49;;;;;;;5.87;4.10;;;;;;;;;;5110355;28;20218;-61
2021/09/06 05:46:18;;;;;;;9.67;4.93;;;;;;;;;;5102121;28;20304;-61
2021/09/06 05:48:47;;;;;;;5.37;4.73;;;;;;;;;;5107173;28;20266;-64
2021/09/06 05:51:14;;;;;;;6.20;4.27;;;;;;;;;;5106902;28;20201;-63
2021/09/06 05:53:42;;;;;;;5.27;3.80;;;;;;;;;;5105671;28;20229;-63
2021/09/06 05:56:10;;;;;;;10.50;4.90;;;;;;;;;;5107094;28;20200;-63
2021/09/06 05:58:38;;;;;;;4.67;4.17;;;;;;;;;;5096681;28;20217;-63
2021/09/06 06:01:06;;;;;;;5.40;4.13;;;;;;;;;;5096563;28;20217;-63
2021/09/06 06:03:36;;;;;;;5.60;4.17;;;;;;;;;;5107329;28;20215;-63
2021/09/06 06:06:05;;;;;;;7.13;4.77;;;;;;;;;;5111561;28;20209;-63
2021/09/06 06:08:33;;;;;;;7.57;4.40;;;;;;;;;;5113878;28;20213;-60
2021/09/06 06:11:01;;;;;;;4.50;4.03;;;;;;;;;;5109886;28;20209;-63
2021/09/06 06:13:29;;;;;;;8.63;5.30;;;;;;;;;;5104916;28;20320;-62
2021/09/06 06:15:58;;;;;;;5.67;4.77;;;;;;;;;;5109910;28;20224;-63
2021/09/06 06:18:33;;;;;;;6.80;4.50;;;;;;;;;;5106386;28;20205;-62
2021/09/06 06:21:03;;;;;;;5.97;4.50;;;;;;;;;;5103954;28;20292;-63
2021/09/06 06:23:31;;;;;;;5.80;4.40;;;;;;;;;;5101734;28;20206;-62
2021/09/06 06:25:59;;;;;;;8.33;4.50;;;;;;;;;;5107748;28;20204;-63
2021/09/06 06:28:28;;;;;;;7.77;4.50;;;;;;;;;;5110881;28;20262;-62
2021/09/06 06:30:56;;;;;;;6.03;4.93;;;;;;;;;;5105038;28;20210;-62
2021/09/06 06:33:29;;;;;;;6.33;4.83;;;;;;;;;;5105020;28;20248;-63
2021/09/06 06:35:58;;;;;;;4.67;3.80;;;;;;;;;;5096319;28;20726;-63
2021/09/06 06:38:28;;;;;;;5.37;4.37;;;;;;;;;;5096886;28;20205;-62
2021/09/06 06:40:56;;;;;;;5.23;4.30;;;;;;;;;;5096973;28;20235;-63
2021/09/06 06:43:24;;;;;;;8.10;4.17;;;;;;;;;;5096736;28;20216;-63
2021/09/06 06:45:53;;;;;;;7.77;4.67;;;;;;;;;;5096434;28;20214;-62
2021/09/06 06:48:21;;;;;;;8.40;4.93;;;;;;;;;;5096470;28;20205;-62
2021/09/06 06:50:51;;;;;;;7.83;4.17;;;;;;;;;;5108673;28;20232;-62
2021/09/06 06:53:19;;;;;;;8.87;4.47;;;;;;;;;;5107011;28;20232;-63
2021/09/06 06:55:48;;;;;;;5.30;4.33;;;;;;;;;;5110347;28;20315;-62
2021/09/06 06:58:16;;;;;;;5.77;4.20;;;;;;;;;;5109883;28;20634;-63
2021/09/06 07:00:44;;;;;;;6.97;4.10;;;;;;;;;;5107861;27;20309;-63
2021/09/06 07:03:13;;;;;;;5.03;3.90;;;;;;;;;;5108228;28;20670;-63
2021/09/06 07:05:41;;;;;;;10.10;4.80;;;;;;;;;;5110635;28;20311;-63
2021/09/06 07:08:10;;;;;;;8.23;4.43;;;;;;;;;;5113415;28;20206;-63
2021/09/06 07:10:38;;;;;;;6.50;4.53;;;;;;;;;;5103656;28;20236;-63
2021/09/06 07:13:07;;;;;;;7.03;4.67;;;;;;;;;;5105353;28;20281;-63
2021/09/06 07:15:36;;;;;;;10.57;4.40;;;;;;;;;;5102727;28;20766;-63
2021/09/06 07:18:07;;;;;;;6.90;5.20;;;;;;;;;;5102848;28;20199;-62
2021/09/06 07:20:35;;;;;;;5.50;4.40;;;;;;;;;;5101312;28;20294;-62
2021/09/06 07:23:04;;;;;;;9.23;5.03;;;;;;;;;;5103764;28;20213;-62
2021/09/06 07:25:34;;;;;;;6.63;4.70;;;;;;;;;;5103142;28;20221;-63
2021/09/06 07:28:04;;;;;;;8.67;4.60;;;;;;;;;;5105887;28;20220;-62
2021/09/06 07:30:34;;;;;;;7.73;4.93;;;;;;;;;;5103533;28;20239;-63
2021/09/06 07:33:05;;;;;;;6.03;4.20;;;;;;;;;;5113380;28;20222;-63
2021/09/06 07:35:34;;;;;;;6.57;5.00;;;;;;;;;;5117616;28;20229;-62
2021/09/06 07:38:02;;;;;;;7.03;5.13;;;;;;;;;;5106981;28;20686;-63
2021/09/06 07:40:31;;;;;;;8.77;5.03;;;;;;;;;;5103201;28;20211;-63
2021/09/06 07:43:01;;;;;;;4.43;4.03;;;;;;;;;;5106947;28;20217;-62
2021/09/06 07:45:29;;;;;;;5.70;4.57;;;;;;;;;;5107794;28;20261;-63
2021/09/06 07:47:59;;;;;;;6.23;4.50;;;;;;;;;;5109428;28;20218;-63
2021/09/06 07:50:27;;;;;;;4.63;3.87;;;;;;;;;;5104039;28;20622;-62
2021/09/06 07:52:55;;;;;;;6.43;4.40;;;;;;;;;;5109746;28;20201;-63
2021/09/06 07:55:24;;;;;;;7.33;4.20;;;;;;;;;;5111333;28;20225;-63
2021/09/06 07:57:52;;;;;;;6.07;4.27;;;;;;;;;;5107891;28;20614;-63
2021/09/06 08:00:20;;;;;;;7.13;4.17;;;;;;;;;;5104316;28;20210;-63
2021/09/06 08:02:51;;;;;;;5.20;4.43;;;;;;;;;;5105336;28;20285;-63
2021/09/06 08:05:22;;;;;;;7.00;4.17;;;;;;;;;;5110846;28;20232;-64
2021/09/06 08:07:53;;;;;;;6.53;4.47;;;;;;;;;;5106387;28;20739;-63
2021/09/06 08:10:22;;;;;;;5.00;4.40;;;;;;;;;;5108277;28;20212;-63
2021/09/06 08:12:50;;;;;;;7.27;4.33;;;;;;;;;;5105898;28;20215;-63
2021/09/06 08:15:19;;;;;;;6.20;4.17;;;;;;;;;;5106106;28;20360;-63
2021/09/06 08:17:48;;;;;;;4.93;4.00;;;;;;;;;;5103744;28;20276;-64
2021/09/06 08:20:17;;;;;;;5.67;4.50;;;;;;;;;;5104632;28;20197;-63
2021/09/06 08:22:47;;;;;;;4.67;3.97;;;;;;;;;;5105223;28;20581;-63
2021/09/06 08:25:15;;;;;;;4.40;4.00;;;;;;;;;;5106446;28;20216;-63
2021/09/06 08:27:43;;;;;;;5.77;4.60;;;;;;;;;;5109191;28;20212;-63
2021/09/06 08:30:13;;;;;;;5.50;3.63;;;;;;;;;;5109635;28;20672;-63
2021/09/06 08:32:43;;;;;;;4.57;3.97;;;;;;;;;;5107029;28;20212;-64
2021/09/06 08:35:12;;;;;;;4.90;3.90;;;;;;;;;;5109720;28;20597;-64
2021/09/06 08:37:40;;;;;;;4.97;4.40;;;;;;;;;;5108785;28;20232;-63
2021/09/06 08:40:11;;;;;;;5.80;4.20;;;;;;;;;;5109469;28;20205;-63
2021/09/06 08:42:39;;;;;;;4.77;3.77;;;;;;;;;;5104123;28;20216;-63
2021/09/06 08:45:09;;;;;;;4.77;3.73;;;;;;;;;;5107675;28;20215;-63
2021/09/06 08:47:38;;;;;;;4.67;3.80;;;;;;;;;;5102770;28;20213;-63
2021/09/06 08:50:07;;;;;;;5.27;4.23;;;;;;;;;;5110466;28;20631;-63
2021/09/06 08:52:36;;;;;;;5.37;4.17;;;;;;;;;;5101483;28;20201;-63
2021/09/06 08:55:04;;;;;;;5.60;4.30;;;;;;;;;;5099430;28;20236;-63
2021/09/06 08:57:35;;;;;;;8.30;3.93;;;;;;;;;;5100061;28;20214;-63
2021/09/06 09:00:04;;;;;;;6.13;4.67;;;;;;;;;;5111742;28;20205;-62
2021/09/06 09:02:34;;;;;;;5.93;3.77;;;;;;;;;;5107638;28;20255;-63
2021/09/06 09:05:04;;;;;;;5.20;4.07;;;;;;;;;;5111032;28;20229;-64
2021/09/06 09:07:37;;;;;;;4.70;3.90;;;;;;;;;;5113109;28;20211;-63
2021/09/06 09:10:05;;;;;;;4.37;3.97;;;;;;;;;;5107211;28;20260;-63
2021/09/06 09:12:35;;;;;;;7.50;3.90;;;;;;;;;;5099513;28;20202;-63
2021/09/06 09:15:04;;;;;;;6.00;4.77;;;;;;;;;;5102551;28;20236;-63
2021/09/06 09:17:34;;;;;;;5.17;4.20;;;;;;;;;;5107302;28;20198;-63
2021/09/06 09:20:04;;;;;;;4.93;3.97;;;;;;;;;;5105523;28;20241;-63
2021/09/06 09:22:33;;;;;;;4.13;3.73;;;;;;;;;;5102941;28;20657;-64
2021/09/06 09:25:02;;;;;;;6.17;3.73;;;;;;;;;;5105664;28;20244;-63
2021/09/06 09:27:32;;;;;;;6.13;4.13;;;;;;;;;;5110390;28;20272;-63
2021/09/06 09:30:03;;;;;;;7.00;4.00;;;;;;;;;;5107522;28;20237;-64
2021/09/06 09:32:33;;;;;;;7.80;4.10;;;;;;;;;;5107307;28;20547;-63
2021/09/06 09:35:04;;;;;;;10.53;4.13;;;;;;;;;;5108201;28;20236;-63
2021/09/06 09:37:33;;;;;;;4.87;3.67;;;;;;;;;;5104052;28;20266;-63
2021/09/06 09:40:04;;;;;;;5.70;3.63;;;;;;;;;;5110072;28;20282;-63
2021/09/06 09:42:32;;;;;;;3.70;3.30;;;;;;;;;;5112374;28;20334;-65
2021/09/06 09:45:02;;;;;;;4.50;3.77;;;;;;;;;;5106890;28;20213;-65
2021/09/06 09:47:30;;;;;;;3.70;3.30;;;;;;;;;;5099783;28;20242;-65
2021/09/06 09:49:58;;;;;;;4.80;3.40;;;;;;;;;;5103826;28;20209;-65
2021/09/06 09:52:27;;;;;;;7.73;3.60;;;;;;;;;;5099021;28;20247;-64
2021/09/06 09:54:55;;;;;;;9.57;3.80;;;;;;;;;;5096769;28;20231;-65
2021/09/06 09:57:25;;;;;;;4.00;3.20;;;;;;;;;;5096701;28;20212;-61
2021/09/06 09:59:53;;;;;;;6.60;3.73;;;;;;;;;;5103016;28;20201;-62
2021/09/06 10:02:25;;;;;;;7.83;3.17;;;;;;;;;;5104169;28;20622;-62
2021/09/06 10:04:54;;;;;;;4.70;3.83;;;;;;;;;;5096390;28;20262;-65
2021/09/06 10:07:23;;;;;;;9.50;3.90;;;;;;;;;;5104245;28;20300;-65
2021/09/06 10:09:51;;;;;;;5.27;3.50;;;;;;;;;;5102847;28;20219;-65
2021/09/06 10:12:20;;;;;;;6.10;3.63;;;;;;;;;;5112510;28;20571;-65
2021/09/06 10:14:51;;;;;;;5.03;3.53;;;;;;;;;;5109449;28;20305;-64
2021/09/06 10:17:33;;;;;;;6.37;3.60;;;;;;;;;;5108972;28;20202;-63
2021/09/06 10:20:03;;;;;;;4.47;3.70;;;;;;;;;;5107940;28;20238;-63
2021/09/06 10:22:31;;;;;;;5.63;3.50;;;;;;;;;;5110231;28;20676;-62
2021/09/06 10:25:01;;;;;;;6.80;3.30;;;;;;;;;;5109822;28;20742;-61
2021/09/06 10:27:30;;;;;;;4.43;3.40;;;;;;;;;;5105094;28;20197;-61
2021/09/06 10:29:58;;;;;;;4.63;3.73;;;;;;;;;;5099299;28;20321;-61
2021/09/06 10:32:34;;;;;;;6.77;4.07;;;;;;;;;;5100808;28;20210;-61
2021/09/06 10:35:05;;;;;;;4.83;3.53;;;;;;;;;;5100800;28;20321;-61
2021/09/06 10:37:35;;;;;;;3.93;3.50;;;;;;;;;;5101181;28;20203;-62
2021/09/06 10:40:26;;;;;;;4.53;3.83;;;;;;;;;;5101039;28;20237;-59
2021/09/06 10:42:54;;;;;;;5.37;3.50;;;;;;;;;;5100846;28;20216;-62
2021/09/06 10:45:22;;;;;;;4.57;3.80;;;;;;;;;;5100607;28;20228;-62
2021/09/06 10:47:58;;;;;;;4.53;3.20;;;;;;;;;;5100757;28;20205;-62
2021/09/06 10:50:28;;;;;;;3.27;2.90;;;;;;;;;;5113674;28;20227;-62
2021/09/06 10:52:56;;;;;;;4.67;3.37;;;;;;;;;;5100992;28;20287;-62
2021/09/06 10:55:24;;;;;;;3.77;3.37;;;;;;;;;;5100711;28;20764;-62
2021/09/06 10:57:52;;;;;;;6.10;3.10;;;;;;;;;;5100610;28;20292;-61
2021/09/06 11:00:20;;;;;;;7.93;3.00;;;;;;;;;;5100793;28;20202;-59
2021/09/06 11:02:49;;;;;;;5.03;3.03;;;;;;;;;;5100712;28;20279;-61
2021/09/06 11:05:18;;;;;;;5.33;3.27;;;;;;;;;;5100477;28;20226;-62
2021/09/06 11:07:48;;;;;;;4.90;3.40;;;;;;;;;;5100530;28;20314;-62
2021/09/06 11:10:19;;;;;;;5.97;3.23;;;;;;;;;;5100518;28;20206;-62
2021/09/06 11:12:54;;;;;;;3.93;3.50;;;;;;;;;;5100751;28;20207;-60
2021/09/06 11:15:23;;;;;;;3.90;3.50;;;;;;;;;;5100294;28;20244;-60
2021/09/06 11:18:00;;;;;;;5.03;3.47;;;;;;;;;;5113445;28;20284;-62
2021/09/06 11:20:29;;;;;;;4.17;3.67;;;;;;;;;;5120325;28;20775;-62
2021/09/06 11:23:00;;;;;;;4.40;3.63;;;;;;;;;;5120772;28;20204;-62
2021/09/06 11:25:32;;;;;;;11.17;3.83;;;;;;;;;;5111670;28;20352;-62
2021/09/06 11:28:06;;;;;;;3.90;3.37;;;;;;;;;;5105297;28;20906;-61
2021/09/06 11:30:35;;;;;;;4.93;4.43;;;;;;;;;;5101090;28;20235;-62
2021/09/06 11:33:05;;;;;;;7.07;3.93;;;;;;;;;;5107555;28;20271;-60
2021/09/06 11:35:34;;;;;;;7.93;3.93;;;;;;;;;;5107199;28;20236;-61
2021/09/06 11:38:03;;;;;;;5.93;4.17;;;;;;;;;;5103693;28;20218;-61
2021/09/06 11:40:32;;;;;;;6.57;3.70;;;;;;;;;;5106699;28;20207;-61
2021/09/06 11:43:00;;;;;;;4.30;3.90;;;;;;;;;;5109693;28;20197;-61
2021/09/06 11:45:28;;;;;;;4.50;2.97;;;;;;;;;;5109050;28;20314;-61
2021/09/06 11:48:00;;;;;;;6.87;3.63;;;;;;;;;;5112725;28;20651;-64
2021/09/06 11:50:30;;;;;;;4.07;3.53;;;;;;;;;;5115634;28;20200;-62
2021/09/06 11:53:09;;;;;;;6.77;3.57;;;;;;;;;;5106460;28;20356;-62
2021/09/06 11:55:37;;;;;;;5.80;3.70;;;;;;;;;;5106314;28;20231;-62
2021/09/06 11:58:06;;;;;;;1414.03;744.23;;;;;;;;;;5111106;28;20289;-62
2021/09/06 12:00:35;;;;;;;686.47;409.20;;;;;;;;;;5112301;28;20289;-62
2021/09/06 12:03:04;;;;;;;30.63;17.13;;;;;;;;;;5108835;28;20571;-63
2021/09/06 12:05:39;;;;;;;9.77;5.70;;;;;;;;;;5107286;28;20721;-62
2021/09/06 12:08:13;;;;;;;12.47;7.73;;;;;;;;;;5098192;28;20203;-61
2021/09/06 12:10:41;;;;;;;5.37;3.70;;;;;;;;;;5101331;28;20285;-60
2021/09/06 12:13:10;;;;;;;6.27;4.43;;;;;;;;;;5109167;28;20753;-63
2021/09/06 12:15:51;;;;;;;12.17;6.90;;;;;;;;;;5110309;28;20233;-62
2021/09/06 12:18:20;;;;;;;6.97;6.23;;;;;;;;;;5114170;28;20227;-61
2021/09/06 12:20:48;;;;;;;5.67;4.47;;;;;;;;;;5114075;28;20700;-63
2021/09/06 12:23:29;;;;;;;3.53;3.20;;;;;;;;;;5112746;28;20208;-62
2021/09/06 12:25:57;;;;;;;3.80;3.40;;;;;;;;;;5109077;28;20191;-63
2021/09/06 12:28:26;;;;;;;8.60;4.77;;;;;;;;;;5105296;28;20655;-63
2021/09/06 12:30:58;;;;;;;6.63;3.53;;;;;;;;;;5104198;28;20226;-63
2021/09/06 12:33:26;;;;;;;5.57;3.40;;;;;;;;;;5100891;28;20211;-63
2021/09/06 12:35:54;;;;;;;4.43;4.03;;;;;;;;;;5109746;28;20229;-63
2021/09/06 12:38:22;;;;;;;5.67;3.67;;;;;;;;;;5102882;28;20203;-63
2021/09/06 12:40:51;;;;;;;3.83;3.40;;;;;;;;;;5104156;28;20235;-63
2021/09/06 12:43:19;;;;;;;4.07;3.57;;;;;;;;;;5104610;28;20202;-62
2021/09/06 12:45:47;;;;;;;5.13;3.43;;;;;;;;;;5105221;28;20215;-63
2021/09/06 12:48:15;;;;;;;3.60;3.30;;;;;;;;;;5106153;28;20202;-63
2021/09/06 12:50:43;;;;;;;7.30;3.77;;;;;;;;;;5105750;28;20217;-63
2021/09/06 12:53:11;;;;;;;2.83;2.63;;;;;;;;;;5109171;28;20215;-63
2021/09/06 12:55:39;;;;;;;5.43;4.27;;;;;;;;;;5110765;28;20230;-63
2021/09/06 12:58:09;;;;;;;3.57;3.27;;;;;;;;;;5110677;28;20272;-62
2021/09/06 13:00:37;;;;;;;4.77;3.80;;;;;;;;;;5112283;28;20271;-63
2021/09/06 13:03:05;;;;;;;4.10;3.50;;;;;;;;;;5102755;28;20206;-63
2021/09/06 13:05:34;;;;;;;3.23;2.93;;;;;;;;;;5100003;28;20226;-63
2021/09/06 13:08:02;;;;;;;7.30;3.60;;;;;;;;;;5114657;28;20204;-62
2021/09/06 13:10:30;;;;;;;4.33;3.17;;;;;;;;;;5115382;28;20564;-62
2021/09/06 13:12:59;;;;;;;3.93;3.50;;;;;;;;;;5104507;28;20597;-62
2021/09/06 13:15:28;;;;;;;4.93;3.40;;;;;;;;;;5107589;28;20257;-62
2021/09/06 13:17:56;;;;;;;5.83;3.87;;;;;;;;;;5095674;28;20254;-62
2021/09/06 13:20:24;;;;;;;4.67;3.40;;;;;;;;;;5100930;28;20206;-62
2021/09/06 13:22:52;;;;;;;3.67;3.37;;;;;;;;;;5108932;28;20641;-62
2021/09/06 13:25:20;;;;;;;5.23;3.37;;;;;;;;;;5102231;28;20236;-62
2021/09/06 13:27:48;;;;;;;4.50;3.50;;;;;;;;;;5102330;28;20240;-61
2021/09/06 13:30:17;;;;;;;7.07;3.40;;;;;;;;;;5109754;28;20293;-62
2021/09/06 13:32:46;;;;;;;3.97;3.37;;;;;;;;;;5105750;28;20203;-62
2021/09/06 13:35:14;;;;;;;3.63;2.67;;;;;;;;;;5110104;28;20216;-62
2021/09/06 13:37:42;;;;;;;4.73;3.10;;;;;;;;;;5106223;28;20625;-62
2021/09/06 13:40:11;;;;;;;6.50;3.40;;;;;;;;;;5106367;28;20667;-63
2021/09/06 13:42:39;;;;;;;3.43;3.17;;;;;;;;;;5098591;28;20768;-63
2021/09/06 13:45:08;;;;;;;3.43;3.03;;;;;;;;;;5098078;28;20296;-62
2021/09/06 13:47:36;;;;;;;4.03;3.30;;;;;;;;;;5103449;28;20676;-63
2021/09/06 13:50:06;;;;;;;4.40;3.63;;;;;;;;;;5104590;28;20208;-62
2021/09/06 13:52:35;;;;;;;3.50;2.93;;;;;;;;;;5100931;28;20230;-63
2021/09/06 13:55:03;;;;;;;3.53;3.17;;;;;;;;;;5105185;28;20309;-62
2021/09/06 13:57:31;;;;;;;3.50;3.10;;;;;;;;;;5103168;28;20224;-62
2021/09/06 13:59:59;;;;;;;5.20;3.17;;;;;;;;;;5100228;28;20234;-62
2021/09/06 14:02:27;;;;;;;2.83;2.63;;;;;;;;;;5099698;28;20649;-62
2021/09/06 14:04:56;;;;;;;4.90;3.07;;;;;;;;;;5100810;28;20231;-62
2021/09/06 14:07:29;;;;;;;3.07;2.60;;;;;;;;;;5108569;28;20194;-62
2021/09/06 14:09:57;;;;;;;4.23;2.90;;;;;;;;;;5117098;28;20233;-62
2021/09/06 14:12:25;;;;;;;4.37;3.30;;;;;;;;;;5112544;28;20207;-62
2021/09/06 14:14:53;;;;;;;4.65;2.83;;;;;;;;;;5110841;28;20221;-62
2021/09/06 14:17:22;;;;;;;3.25;2.95;;;;;;;;;;5108805;28;20214;-62
2021/09/06 14:19:50;;;;;;;4.00;2.88;;;;;;;;;;5109392;28;20197;-62
2021/09/06 14:22:18;;;;;;;3.83;2.97;;;;;;;;;;5111090;28;20208;-62
2021/09/06 14:24:47;;;;;;;4.80;2.63;;;;;;;;;;5111737;28;20221;-62
2021/09/06 14:27:15;;;;;;;3.27;2.80;;;;;;;;;;5105371;28;20202;-62
2021/09/06 14:29:43;;;;;;;4.27;2.70;;;;;;;;;;5117095;28;20236;-63
2021/09/06 14:32:11;;;;;;;3.23;2.80;;;;;;;;;;5108600;28;20684;-62
2021/09/06 14:34:42;;;;;;;2.37;2.13;;;;;;;;;;5114866;28;20230;-63
2021/09/06 14:37:12;;;;;;;3.00;2.70;;;;;;;;;;5115791;28;20225;-63
2021/09/06 14:39:40;;;;;;;2.97;2.70;;;;;;;;;;5113671;28;20205;-63
2021/09/06 14:42:10;;;;;;;5.77;3.47;;;;;;;;;;5114169;28;20282;-63
2021/09/06 14:44:38;;;;;;;5.20;4.07;;;;;;;;;;5109411;28;20310;-63
2021/09/06 14:47:06;;;;;;;3.07;2.63;;;;;;;;;;5112737;28;20241;-63
2021/09/06 14:49:35;;;;;;;2.85;2.40;;;;;;;;;;5105987;28;20203;-63
2021/09/06 14:52:04;;;;;;;2.97;2.40;;;;;;;;;;5109898;28;20197;-62